Time;durP1;ratioP1;P1;durP2;ratioP2;P2;SDS_P1;SDS_P2;PMS_P1;PMS_P2;Temp;Humidity;BMP_temperature;BMP_pressure;BME280_temperature;BME280_humidity;BME280_pressure;Samples;Min_cycle;Max_cycle;Signal;HPM_P1;HPM_P2
2022/09/22 00:01:39;;;;;;;9.20;2.72;;;10.40;99.90;;;;;;5122664;27;20178;-86
2022/09/22 00:04:09;;;;;;;4.13;2.72;;;10.40;99.90;;;;;;5106550;27;20035;-86
2022/09/22 00:06:39;;;;;;;6.68;2.97;;;10.40;99.90;;;;;;5136724;27;20054;-88
2022/09/22 00:09:07;;;;;;;4.50;2.88;;;10.30;99.90;;;;;;5117378;28;20031;-87
2022/09/22 00:11:36;;;;;;;4.20;2.92;;;10.30;99.90;;;;;;5118964;27;20070;-87
2022/09/22 00:14:09;;;;;;;5.47;3.38;;;10.30;99.90;;;;;;5137218;27;20019;-88
2022/09/22 00:16:44;;;;;;;4.90;2.92;;;10.30;99.90;;;;;;5136667;27;20055;-88
2022/09/22 00:19:11;;;;;;;;;;;10.20;99.90;;;;;;5137537;27;20034;-88
2022/09/22 00:21:37;;;;;;;4.47;3.05;;;10.20;99.90;;;;;;5137229;27;20011;-90
2022/09/22 00:24:08;;;;;;;4.70;3.20;;;10.20;99.90;;;;;;5136307;27;20039;-89
2022/09/22 00:26:35;;;;;;;4.60;2.92;;;10.20;99.90;;;;;;5152771;27;20046;-88
2022/09/22 00:29:02;;;;;;;6.63;3.10;;;10.20;99.90;;;;;;5154651;27;20027;-89
2022/09/22 00:31:28;;;;;;;5.15;3.05;;;10.20;99.90;;;;;;5137026;27;20050;-87
2022/09/22 00:33:54;;;;;;;6.53;3.35;;;10.20;99.90;;;;;;5114688;28;20020;-89
2022/09/22 00:36:24;;;;;;;6.07;3.15;;;10.20;99.90;;;;;;5132922;27;20035;-89
2022/09/22 00:38:51;;;;;;;4.50;3.17;;;10.10;99.90;;;;;;5134684;27;20015;-88
2022/09/22 00:41:25;;;;;;;5.88;2.55;;;10.10;99.90;;;;;;5138562;27;20035;-88
2022/09/22 00:44:20;;;;;;;4.93;3.03;;;10.10;99.90;;;;;;5125259;27;20019;-88
2022/09/22 00:46:54;;;;;;;4.40;3.00;;;10.10;99.90;;;;;;5114838;27;20049;-86
2022/09/22 00:49:28;;;;;;;4.05;2.58;;;10.00;99.90;;;;;;5156528;27;20027;-87
2022/09/22 00:51:54;;;;;;;6.03;3.13;;;10.00;99.90;;;;;;5151764;27;20088;-88
2022/09/22 00:54:20;;;;;;;4.95;2.92;;;10.00;99.90;;;;;;5152506;27;20069;-88
2022/09/22 00:57:07;;;;;;;4.63;2.80;;;10.00;99.90;;;;;;5154025;27;20062;-87
2022/09/22 00:59:33;;;;;;;4.05;3.05;;;9.90;99.90;;;;;;5128654;28;20023;-88
2022/09/22 01:01:59;;;;;;;5.82;3.50;;;9.90;99.90;;;;;;5116402;28;20007;-88
2022/09/22 01:04:26;;;;;;;6.38;2.80;;;9.90;99.90;;;;;;5120707;27;20012;-87
2022/09/22 01:06:55;;;;;;;7.07;3.58;;;9.90;99.90;;;;;;5120385;28;20036;-87
2022/09/22 01:09:21;;;;;;;4.05;2.83;;;9.90;99.90;;;;;;5142115;27;20080;-86
2022/09/22 01:11:47;;;;;;;4.95;2.97;;;9.90;99.90;;;;;;5122229;27;20114;-86
2022/09/22 01:14:37;;;;;;;10.57;3.65;;;9.90;99.90;;;;;;5132316;27;20092;-86
2022/09/22 01:17:30;;;;;;;3.58;2.80;;;9.90;99.90;;;;;;5138048;27;20038;-86
2022/09/22 01:20:24;;;;;;;4.55;2.75;;;9.90;99.90;;;;;;5115540;28;20035;-86
2022/09/22 01:23:27;;;;;;;3.17;2.67;;;9.80;99.90;;;;;;5115672;28;20036;-86
2022/09/22 01:26:19;;;;;;;4.15;2.92;;;9.80;99.90;;;;;;5139012;27;20045;-86
2022/09/22 01:29:10;;;;;;;3.88;3.03;;;9.80;99.90;;;;;;5139239;27;20094;-86
2022/09/22 01:31:47;;;;;;;5.13;2.75;;;9.70;99.90;;;;;;5126888;28;20038;-87
2022/09/22 01:34:18;;;;;;;3.22;2.55;;;9.70;99.90;;;;;;5100409;28;20038;-87
2022/09/22 01:36:54;;;;;;;6.60;2.80;;;9.70;99.90;;;;;;5117629;28;20031;-87
2022/09/22 01:39:56;;;;;;;4.13;2.65;;;9.70;99.90;;;;;;5139824;27;20044;-86
2022/09/22 01:42:43;;;;;;;7.18;3.10;;;9.60;99.90;;;;;;5133375;27;20046;-87
2022/09/22 01:45:12;;;;;;;3.72;2.65;;;9.60;99.90;;;;;;5141621;27;20035;-87
2022/09/22 01:47:55;;;;;;;4.53;3.20;;;9.60;99.90;;;;;;5106327;27;20484;-86
2022/09/22 01:50:39;;;;;;;6.03;2.97;;;9.50;99.90;;;;;;5134359;27;20022;-89
2022/09/22 01:53:12;;;;;;;6.20;2.80;;;9.50;99.90;;;;;;5103962;28;20027;-90
2022/09/22 01:55:41;;;;;;;4.60;3.13;;;9.50;99.90;;;;;;5123730;27;20041;-87
2022/09/22 01:58:17;;;;;;;4.90;3.08;;;9.50;99.90;;;;;;5123920;28;20070;-89
2022/09/22 02:01:11;;;;;;;4.05;2.72;;;9.50;99.90;;;;;;5118071;27;20031;-88
2022/09/22 02:03:49;;;;;;;5.53;3.70;;;9.50;99.90;;;;;;5114957;27;20035;-86
2022/09/22 02:06:32;;;;;;;4.50;3.13;;;9.50;99.90;;;;;;5133760;27;20083;-85
2022/09/22 02:09:08;;;;;;;4.03;2.72;;;9.40;99.90;;;;;;5129992;27;20131;-86
2022/09/22 02:11:34;;;;;;;5.57;3.35;;;9.40;99.90;;;;;;5159384;27;20046;-86
2022/09/22 02:14:02;;;;;;;5.88;3.42;;;9.40;99.90;;;;;;5141516;27;20008;-86
2022/09/22 02:16:28;;;;;;;6.22;3.13;;;9.40;99.90;;;;;;5159549;27;20031;-85
2022/09/22 02:19:09;;;;;;;6.15;3.10;;;9.40;99.90;;;;;;5141516;27;20020;-86
2022/09/22 02:21:35;;;;;;;7.82;3.17;;;9.50;99.90;;;;;;5141763;27;20019;-86
2022/09/22 02:24:01;;;;;;;6.78;3.10;;;9.50;99.90;;;;;;5159317;27;20019;-86
2022/09/22 02:26:30;;;;;;;5.03;3.45;;;9.60;99.90;;;;;;5159772;27;20059;-87
2022/09/22 02:29:01;;;;;;;5.63;3.08;;;9.50;99.90;;;;;;5159389;27;20019;-86
2022/09/22 02:31:31;;;;;;;5.10;3.15;;;9.60;99.90;;;;;;5159675;27;20068;-87
2022/09/22 02:33:57;;;;;;;8.50;3.58;;;9.50;99.90;;;;;;5153754;28;20038;-86
2022/09/22 02:36:46;;;;;;;6.72;3.90;;;9.50;99.90;;;;;;5133111;28;20028;-88
2022/09/22 02:39:33;;;;;;;7.78;4.20;;;9.40;99.90;;;;;;5121028;28;20051;-88
2022/09/22 02:42:05;;;;;;;6.97;3.95;;;9.40;99.90;;;;;;5130434;28;20106;-86
2022/09/22 02:44:51;;;;;;;6.68;3.78;;;9.30;99.90;;;;;;5147606;28;20030;-87
2022/09/22 02:47:39;;;;;;;9.07;4.10;;;9.40;99.90;;;;;;5145764;28;20050;-86
2022/09/22 02:50:08;;;;;;;5.80;3.88;;;9.40;99.90;;;;;;5122230;28;20058;-85
2022/09/22 02:52:36;;;;;;;6.57;3.65;;;9.40;99.90;;;;;;5140684;27;20015;-86
2022/09/22 02:55:02;;;;;;;4.63;3.60;;;9.50;99.90;;;;;;5140176;27;20031;-87
2022/09/22 02:57:28;;;;;;;5.20;3.58;;;9.60;99.90;;;;;;5136776;28;20086;-88
2022/09/22 02:59:54;;;;;;;6.13;3.05;;;9.70;99.90;;;;;;5143805;27;20028;-86
2022/09/22 03:02:19;;;;;;;4.60;3.03;;;9.80;99.90;;;;;;5129272;27;20015;-87
2022/09/22 03:04:45;;;;;;;5.93;3.20;;;9.90;99.90;;;;;;5126710;28;20027;-87
2022/09/22 03:07:11;;;;;;;4.70;3.08;;;10.00;99.90;;;;;;5126461;28;20046;-86
2022/09/22 03:09:37;;;;;;;4.35;3.30;;;10.10;99.90;;;;;;5133822;28;20019;-88
2022/09/22 03:12:03;;;;;;;7.25;2.92;;;10.10;99.90;;;;;;5116464;28;20062;-86
2022/09/22 03:14:29;;;;;;;4.22;2.70;;;10.20;99.90;;;;;;5130069;28;20027;-86
2022/09/22 03:16:55;;;;;;;8.00;3.28;;;10.20;99.90;;;;;;5119919;28;20034;-87
2022/09/22 03:19:20;;;;;;;4.85;2.75;;;10.30;99.90;;;;;;5108113;27;20019;-87
2022/09/22 03:21:46;;;;;;;4.82;3.17;;;10.40;99.90;;;;;;5161396;27;20027;-86
2022/09/22 03:24:12;;;;;;;4.05;2.90;;;10.30;99.90;;;;;;5161562;27;20031;-85
2022/09/22 03:26:38;;;;;;;3.92;2.80;;;10.30;99.90;;;;;;5162455;27;20043;-86
2022/09/22 03:29:04;;;;;;;4.00;2.88;;;10.40;99.90;;;;;;5142809;27;20035;-86
2022/09/22 03:31:29;;;;;;;8.98;3.38;;;10.40;99.90;;;;;;5141171;27;20023;-87
2022/09/22 03:33:55;;;;;;;7.15;2.38;;;10.40;99.90;;;;;;5140630;27;20015;-85
2022/09/22 03:36:22;;;;;;;4.43;2.70;;;10.50;99.90;;;;;;5144307;27;20023;-85
2022/09/22 03:38:48;;;;;;;3.22;2.40;;;10.50;99.90;;;;;;5144381;27;20031;-86
2022/09/22 03:41:14;;;;;;;4.40;2.88;;;10.50;99.90;;;;;;5108114;27;20095;-86
2022/09/22 03:43:39;;;;;;;3.47;2.50;;;10.50;99.90;;;;;;5156150;27;20007;-85
2022/09/22 03:46:05;;;;;;;5.28;2.90;;;10.60;99.90;;;;;;5143053;27;20019;-86
2022/09/22 03:48:31;;;;;;;4.63;2.63;;;10.50;99.90;;;;;;5161947;27;20043;-87
2022/09/22 03:50:57;;;;;;;6.30;3.17;;;10.50;99.90;;;;;;5124908;27;20052;-88
2022/09/22 03:53:23;;;;;;;4.95;2.72;;;10.50;99.90;;;;;;5135113;27;20027;-86
2022/09/22 03:55:50;;;;;;;4.32;2.90;;;10.40;99.90;;;;;;5146176;27;20069;-86
2022/09/22 03:58:18;;;;;;;5.43;3.08;;;10.40;99.90;;;;;;5122250;27;20031;-85
2022/09/22 04:00:44;;;;;;;3.25;2.80;;;10.30;99.90;;;;;;5133536;27;20039;-86
2022/09/22 04:03:12;;;;;;;5.82;3.22;;;10.30;99.90;;;;;;5160491;27;20027;-87
2022/09/22 04:05:38;;;;;;;8.23;3.28;;;10.30;99.90;;;;;;5125502;27;20027;-86
2022/09/22 04:08:04;;;;;;;8.25;2.90;;;10.20;99.90;;;;;;5142750;27;20072;-86
2022/09/22 04:10:29;;;;;;;5.63;2.90;;;10.20;99.90;;;;;;5143481;27;20027;-86
2022/09/22 04:12:55;;;;;;;4.65;2.80;;;10.10;99.90;;;;;;5147169;27;20018;-86
2022/09/22 04:15:21;;;;;;;5.93;2.92;;;10.10;99.90;;;;;;5160044;27;20055;-86
2022/09/22 04:17:48;;;;;;;7.20;3.40;;;10.10;99.90;;;;;;5158951;27;20019;-86
2022/09/22 04:20:14;;;;;;;8.60;3.38;;;10.00;99.90;;;;;;5153137;27;20020;-86
2022/09/22 04:22:39;;;;;;;6.32;2.65;;;10.00;99.90;;;;;;5121662;28;20034;-88
2022/09/22 04:25:06;;;;;;;8.82;3.08;;;10.00;99.90;;;;;;5119846;28;20396;-85
2022/09/22 04:27:32;;;;;;;6.32;3.08;;;10.00;99.90;;;;;;5136345;28;20035;-85
2022/09/22 04:29:59;;;;;;;8.85;3.38;;;9.90;99.90;;;;;;5106136;27;20062;-85
2022/09/22 04:32:25;;;;;;;7.18;2.80;;;9.90;99.90;;;;;;5124345;27;20026;-85
2022/09/22 04:34:51;;;;;;;5.25;3.10;;;9.80;99.90;;;;;;5143098;27;20063;-85
2022/09/22 04:37:17;;;;;;;4.57;2.80;;;9.80;99.90;;;;;;5160662;27;20052;-85
2022/09/22 04:39:42;;;;;;;6.53;3.38;;;9.80;99.90;;;;;;5122935;27;20043;-87
2022/09/22 04:42:08;;;;;;;6.32;3.00;;;9.70;99.90;;;;;;5142907;27;20026;-85
2022/09/22 04:44:34;;;;;;;4.47;2.83;;;9.70;99.90;;;;;;5141483;27;20303;-86
2022/09/22 04:47:00;;;;;;;6.53;3.72;;;9.70;99.90;;;;;;5124930;27;20039;-85
2022/09/22 04:49:27;;;;;;;7.53;3.35;;;9.70;99.90;;;;;;5156806;27;20023;-86
2022/09/22 04:51:53;;;;;;;6.03;2.78;;;9.70;99.90;;;;;;5122127;27;20104;-86
2022/09/22 04:54:19;;;;;;;8.95;3.10;;;9.70;99.90;;;;;;5120665;28;20083;-86
2022/09/22 04:56:45;;;;;;;8.48;2.95;;;9.70;99.90;;;;;;5120988;27;20054;-88
2022/09/22 04:59:10;;;;;;;8.48;4.03;;;9.70;99.90;;;;;;5121237;27;20075;-87
2022/09/22 05:01:42;;;;;;;3.78;2.85;;;9.70;99.90;;;;;;5158668;27;20026;-85
2022/09/22 05:04:08;;;;;;;11.23;3.40;;;9.70;99.90;;;;;;5140955;27;20030;-87
2022/09/22 05:06:35;;;;;;;6.88;3.42;;;9.70;99.90;;;;;;5139029;27;20020;-82
2022/09/22 05:09:02;;;;;;;10.75;3.45;;;9.60;99.90;;;;;;5100724;28;20038;-88
2022/09/22 05:11:29;;;;;;;11.20;3.58;;;9.70;99.90;;;;;;5119474;28;20050;-89
2022/09/22 05:13:56;;;;;;;17.00;5.03;;;9.70;99.90;;;;;;5100861;28;20036;-89
2022/09/22 05:16:22;;;;;;;12.43;3.35;;;9.60;99.90;;;;;;5115214;28;20064;-90
2022/09/22 05:18:49;;;;;;;7.65;3.40;;;9.70;99.90;;;;;;5105025;27;20027;-88
2022/09/22 05:21:19;;;;;;;14.85;3.75;;;9.70;99.90;;;;;;5117343;27;20018;-89
2022/09/22 05:23:47;;;;;;;9.15;3.15;;;9.80;99.90;;;;;;5126019;27;20016;-88
2022/09/22 05:26:13;;;;;;;6.63;3.20;;;9.80;99.90;;;;;;5148194;27;20038;-87
2022/09/22 05:28:39;;;;;;;6.72;3.75;;;9.90;99.90;;;;;;5115315;27;20035;-85
2022/09/22 05:31:06;;;;;;;9.10;3.40;;;9.90;99.90;;;;;;5113657;27;20035;-90
2022/09/22 05:33:32;;;;;;;7.10;3.30;;;10.00;99.90;;;;;;5121991;28;20047;-89
2022/09/22 05:35:57;;;;;;;7.72;3.25;;;10.10;99.90;;;;;;5125536;27;20042;-88
2022/09/22 05:38:24;;;;;;;6.00;3.53;;;10.10;99.90;;;;;;5128954;27;20103;-89
2022/09/22 05:40:58;;;;;;;9.82;3.33;;;10.20;99.90;;;;;;5120897;27;20034;-88
2022/09/22 05:43:33;;;;;;;6.18;3.35;;;10.30;99.90;;;;;;5102147;28;20243;-89
2022/09/22 05:46:05;;;;;;;5.78;3.13;;;10.30;99.90;;;;;;5093215;27;20039;-90
2022/09/22 05:48:31;;;;;;;8.50;3.20;;;10.50;99.90;;;;;;5115859;27;20111;-87
2022/09/22 05:50:57;;;;;;;6.15;3.00;;;10.60;99.90;;;;;;5122781;27;20011;-85
2022/09/22 05:53:27;;;;;;;7.88;3.35;;;10.70;99.90;;;;;;5123306;22;20386;-84
2022/09/22 05:55:52;;;;;;;7.47;3.20;;;10.70;99.90;;;;;;5107411;28;20036;-85
2022/09/22 05:58:19;;;;;;;6.55;3.67;;;10.80;99.90;;;;;;5106449;28;20055;-84
2022/09/22 06:00:45;;;;;;;6.93;3.28;;;10.90;99.90;;;;;;5105053;28;20031;-87
2022/09/22 06:03:10;;;;;;;7.32;3.25;;;11.10;99.90;;;;;;5093243;28;20487;-85
2022/09/22 06:05:36;;;;;;;5.18;3.47;;;11.20;99.90;;;;;;5059679;28;20039;-84
2022/09/22 06:08:05;;;;;;;5.18;3.13;;;11.30;99.90;;;;;;5097307;28;20039;-85
2022/09/22 06:10:34;;;;;;;5.75;3.15;;;11.50;99.90;;;;;;5102412;28;20074;-85
2022/09/22 06:13:02;;;;;;;7.88;3.03;;;11.70;99.90;;;;;;5106608;28;20016;-85
2022/09/22 06:15:29;;;;;;;8.57;3.22;;;11.80;99.90;;;;;;5111656;28;20024;-83
2022/09/22 06:17:55;;;;;;;10.60;3.88;;;11.90;99.90;;;;;;5109418;28;20034;-84
2022/09/22 06:20:22;;;;;;;7.97;3.67;;;12.00;99.90;;;;;;5100316;28;20052;-85
2022/09/22 06:22:48;;;;;;;7.53;3.42;;;12.10;99.90;;;;;;5104638;28;20032;-84
2022/09/22 06:25:14;;;;;;;6.18;3.50;;;12.10;99.90;;;;;;5083440;28;20047;-84
2022/09/22 06:27:41;;;;;;;6.35;3.28;;;12.10;99.90;;;;;;5099273;28;20108;-82
2022/09/22 06:30:10;;;;;;;11.45;3.92;;;12.10;99.90;;;;;;5097892;28;20011;-84
2022/09/22 06:32:39;;;;;;;6.95;3.28;;;12.20;99.90;;;;;;5099818;28;20517;-85
2022/09/22 06:35:06;;;;;;;10.50;3.60;;;12.20;99.90;;;;;;5099845;28;20092;-85
2022/09/22 06:37:32;;;;;;;6.07;3.70;;;12.30;99.90;;;;;;5096148;28;20066;-84
2022/09/22 06:39:58;;;;;;;7.93;3.67;;;12.40;99.90;;;;;;5098579;28;20044;-84
2022/09/22 06:42:24;;;;;;;5.57;3.58;;;12.40;99.90;;;;;;5102924;28;20028;-84
2022/09/22 06:44:50;;;;;;;6.72;3.58;;;12.50;99.90;;;;;;5099242;28;20032;-85
2022/09/22 06:47:16;;;;;;;6.35;3.15;;;12.60;99.90;;;;;;5105514;28;20043;-85
2022/09/22 06:49:41;;;;;;;5.30;3.40;;;12.70;99.90;;;;;;5102893;28;20024;-83
2022/09/22 06:52:12;;;;;;;7.03;3.40;;;12.80;99.90;;;;;;5105819;28;20039;-83
2022/09/22 06:54:39;;;;;;;10.80;3.58;;;12.90;99.90;;;;;;5107503;28;20028;-85
2022/09/22 06:57:05;;;;;;;7.50;3.45;;;13.00;99.90;;;;;;5083165;28;20024;-83
2022/09/22 06:59:32;;;;;;;5.32;3.00;;;13.10;99.90;;;;;;5107633;28;20211;-84
2022/09/22 07:01:57;;;;;;;5.75;3.55;;;13.20;99.90;;;;;;5100979;28;20030;-85
2022/09/22 07:04:23;;;;;;;5.72;3.15;;;13.30;99.90;;;;;;5096475;28;20087;-83
2022/09/22 07:06:49;;;;;;;7.20;3.30;;;13.40;99.90;;;;;;5083686;28;20025;-83
2022/09/22 07:09:15;;;;;;;5.57;3.38;;;13.40;99.90;;;;;;5112105;28;20403;-83
2022/09/22 07:11:42;;;;;;;5.13;3.33;;;13.30;99.90;;;;;;5101187;28;20028;-84
2022/09/22 07:14:10;;;;;;;8.65;3.70;;;13.30;99.90;;;;;;5101832;28;20050;-85
2022/09/22 07:16:36;;;;;;;6.55;3.00;;;13.30;99.90;;;;;;5099622;28;20470;-85
2022/09/22 07:19:04;;;;;;;5.28;3.28;;;13.40;99.90;;;;;;5104961;28;20032;-86
2022/09/22 07:21:35;;;;;;;5.43;2.90;;;13.40;99.90;;;;;;5092489;28;20269;-85
2022/09/22 07:24:01;;;;;;;6.28;3.58;;;13.40;99.90;;;;;;5106978;28;20028;-84
2022/09/22 07:26:35;;;;;;;5.40;2.92;;;13.40;99.90;;;;;;5105880;28;20150;-85
2022/09/22 07:29:10;;;;;;;5.53;3.08;;;13.70;99.90;;;;;;5077250;28;20020;-85
2022/09/22 07:31:36;;;;;;;;;;;13.90;99.90;;;;;;5109667;28;20046;-85
2022/09/22 07:34:02;;;;;;;4.13;2.65;;;14.20;99.90;;;;;;5112218;28;19900;-84
2022/09/22 07:36:30;;;;;;;6.97;3.55;;;14.40;99.90;;;;;;5113977;28;20076;-84
2022/09/22 07:39:02;;;;;;;4.35;2.83;;;14.70;99.90;;;;;;5114494;28;20243;-82
2022/09/22 07:41:29;;;;;;;5.15;3.13;;;14.70;99.90;;;;;;5100463;28;20028;-83
2022/09/22 07:45:11;;;;;;;5.07;2.80;;;14.80;99.90;;;;;;5102137;28;20142;-84
2022/09/22 07:46:45;;;;;;;6.15;3.08;;;14.80;99.90;;;;;;5095498;28;20061;-83
2022/09/22 07:49:13;;;;;;;8.65;3.17;;;14.70;99.90;;;;;;5104443;28;20036;-84
2022/09/22 07:51:40;;;;;;;7.70;2.72;;;14.60;99.90;;;;;;5100443;28;20028;-84
2022/09/22 07:54:08;;;;;;;4.53;2.92;;;14.60;99.90;;;;;;5074075;28;20028;-81
2022/09/22 07:56:40;;;;;;;3.55;2.50;;;14.60;99.90;;;;;;5098202;28;20051;-84
2022/09/22 07:59:09;;;;;;;4.32;2.83;;;14.70;99.90;;;;;;5095571;28;20020;-85
2022/09/22 08:01:43;;;;;;;6.03;3.13;;;14.90;99.90;;;;;;5100401;28;20017;-84
2022/09/22 08:04:17;;;;;;;6.90;2.53;;;15.00;99.90;;;;;;5103445;28;20039;-85
2022/09/22 08:06:48;;;;;;;5.53;2.70;;;15.10;99.90;;;;;;5102660;28;20024;-85
2022/09/22 08:09:15;;;;;;;11.25;3.42;;;15.20;99.90;;;;;;5078973;28;20113;-83
2022/09/22 08:11:44;;;;;;;5.38;2.97;;;15.20;99.90;;;;;;5073067;28;20023;-84
2022/09/22 08:14:11;;;;;;;6.80;3.03;;;15.30;99.90;;;;;;5079844;28;20028;-83
2022/09/22 08:16:38;;;;;;;5.43;2.90;;;15.20;99.90;;;;;;5110097;28;20075;-86
2022/09/22 08:19:13;;;;;;;6.65;3.35;;;15.20;99.90;;;;;;5106224;28;20021;-86
2022/09/22 08:21:43;;;;;;;;;;;15.10;99.90;;;;;;5097880;28;20040;-85
2022/09/22 08:24:12;;;;;;;4.60;2.70;;;15.10;99.90;;;;;;5111366;28;19923;-84
2022/09/22 08:26:40;;;;;;;5.28;3.13;;;15.20;99.90;;;;;;5097371;28;20115;-85
2022/09/22 08:29:07;;;;;;;5.88;2.50;;;15.20;99.90;;;;;;5063970;28;20046;-83
2022/09/22 08:31:34;;;;;;;5.15;2.92;;;15.40;99.90;;;;;;5091292;28;20103;-84
2022/09/22 08:34:00;;;;;;;5.78;2.67;;;15.40;99.90;;;;;;5096591;28;20008;-86
2022/09/22 08:36:26;;;;;;;5.78;2.90;;;15.60;99.90;;;;;;5078254;28;20024;-85
2022/09/22 08:38:58;;;;;;;4.95;3.28;;;15.50;99.90;;;;;;5082997;28;20108;-83
2022/09/22 08:41:28;;;;;;;5.15;2.95;;;15.50;99.90;;;;;;5103940;28;20044;-85
2022/09/22 08:44:10;;;;;;;7.07;3.20;;;15.40;99.90;;;;;;5080054;28;21276;-86
2022/09/22 08:46:47;;;;;;;4.93;2.88;;;15.30;99.90;;;;;;5081369;28;20067;-83
2022/09/22 08:53:02;;;;;;;4.03;2.67;;;15.30;99.90;;;;;;5069273;28;20040;-86
2022/09/22 08:55:29;;;;;;;6.70;3.08;;;15.30;99.90;;;;;;5102612;28;20040;-86
2022/09/22 08:58:10;;;;;;;7.75;3.63;;;15.40;99.90;;;;;;5104002;28;20118;-90
2022/09/22 09:00:41;;;;;;;6.07;3.33;;;15.40;99.90;;;;;;5089340;28;20040;-86
2022/09/22 09:03:22;;;;;;;5.93;3.15;;;15.60;99.90;;;;;;5104814;28;20024;-88
2022/09/22 09:05:56;;;;;;;4.70;3.05;;;15.70;99.90;;;;;;5109729;28;20060;-91
2022/09/22 09:08:44;;;;;;;11.23;3.28;;;16.50;99.90;;;;;;5089803;28;20042;-91
2022/09/22 09:11:32;;;;;;;9.00;2.88;;;19.10;99.90;;;;;;5098069;28;20069;-91
2022/09/22 09:14:15;;;;;;;4.03;2.80;;;20.90;99.60;;;;;;5093536;28;20111;-87
2022/09/22 09:17:07;;;;;;;4.43;2.40;;;22.90;96.20;;;;;;5098366;28;20050;-87
2022/09/22 09:19:33;;;;;;;6.45;2.58;;;24.00;92.30;;;;;;5100363;28;20024;-89
2022/09/22 09:22:02;;;;;;;4.07;2.47;;;24.80;90.70;;;;;;5088931;28;20016;-91
2022/09/22 09:24:44;;;;;;;3.97;2.25;;;25.70;87.70;;;;;;5081196;28;20037;-90
2022/09/22 09:27:18;;;;;;;5.88;2.78;;;26.40;84.50;;;;;;5080847;28;20112;-89
2022/09/22 09:30:13;;;;;;;3.70;2.33;;;26.60;81.90;;;;;;5098333;28;20033;-87
2022/09/22 09:32:53;;;;;;;6.17;2.80;;;25.40;82.70;;;;;;5117348;28;20039;-90
2022/09/22 09:35:25;;;;;;;3.70;2.22;;;25.10;83.30;;;;;;5096402;28;20278;-86
2022/09/22 09:37:54;;;;;;;4.70;2.58;;;25.50;81.90;;;;;;5091200;28;20064;-89
2022/09/22 09:40:20;;;;;;;4.13;2.25;;;26.00;81.30;;;;;;5088037;28;20016;-88
2022/09/22 09:43:05;;;;;;;2.50;2.05;;;26.40;80.00;;;;;;5105126;28;20020;-87
2022/09/22 09:46:02;;;;;;;6.57;2.65;;;27.10;78.60;;;;;;5097225;28;20020;-89
2022/09/22 09:48:40;;;;;;;5.90;2.63;;;27.80;76.20;;;;;;5060632;28;20040;-91
2022/09/22 09:51:11;;;;;;;4.43;2.45;;;27.80;75.40;;;;;;5083490;28;20024;-87
2022/09/22 09:53:45;;;;;;;4.55;2.67;;;27.50;74.70;;;;;;5077751;28;20032;-87
2022/09/22 09:56:59;;;;;;;3.72;2.42;;;28.50;73.80;;;;;;5091866;28;20055;-87
2022/09/22 10:02:14;;;;;;;2.67;2.10;;;29.30;69.60;;;;;;5101942;28;20041;-87
2022/09/22 10:04:40;;;;;;;3.65;1.80;;;29.90;67.90;;;;;;5073391;28;20021;-86
2022/09/22 10:07:15;;;;;;;3.85;1.85;;;30.40;66.40;;;;;;5103202;28;20091;-88
2022/09/22 10:09:42;;;;;;;4.20;1.83;;;30.20;66.10;;;;;;5093539;28;20020;-89
2022/09/22 10:12:26;;;;;;;5.85;2.17;;;30.40;64.90;;;;;;5117007;28;20023;-86
2022/09/22 10:15:01;;;;;;;3.72;1.73;;;31.00;64.20;;;;;;5104350;28;20086;-87
2022/09/22 10:17:40;;;;;;;4.25;2.50;;;31.00;62.60;;;;;;5091393;28;20028;-86
2022/09/22 10:20:25;;;;;;;4.05;2.33;;;31.70;62.00;;;;;;5081130;28;20025;-88
2022/09/22 10:22:52;;;;;;;3.83;2.25;;;31.90;61.10;;;;;;5073024;28;20028;-86
2022/09/22 10:25:22;;;;;;;2.38;1.88;;;31.60;60.40;;;;;;5066284;28;20025;-86
2022/09/22 10:28:08;;;;;;;2.60;2.05;;;31.20;60.30;;;;;;5080836;28;20033;-88
2022/09/22 10:30:36;;;;;;;4.35;1.95;;;31.00;60.40;;;;;;5100431;28;20083;-85
2022/09/22 10:33:17;;;;;;;3.60;1.80;;;30.70;60.80;;;;;;5104104;28;20103;-88
2022/09/22 10:36:03;;;;;;;2.47;1.73;;;31.10;60.30;;;;;;5110938;28;20066;-87
2022/09/22 10:38:33;;;;;;;3.28;2.05;;;31.40;59.90;;;;;;5090737;28;20487;-87
2022/09/22 10:41:06;;;;;;;3.10;1.80;;;31.40;59.90;;;;;;5097846;28;20035;-85
2022/09/22 10:43:45;;;;;;;3.00;1.90;;;31.20;59.70;;;;;;5109623;28;20058;-86
2022/09/22 10:46:28;;;;;;;3.38;2.10;;;31.10;60.30;;;;;;5091185;28;20032;-88
2022/09/22 10:49:20;;;;;;;2.47;1.77;;;32.20;59.00;;;;;;5101036;28;20705;-87
2022/09/22 10:52:21;;;;;;;5.18;2.13;;;32.60;57.20;;;;;;5086683;28;20076;-85
2022/09/22 10:55:21;;;;;;;2.55;1.92;;;33.30;56.80;;;;;;5072399;28;20104;-89
2022/09/22 10:57:52;;;;;;;2.67;2.15;;;33.50;56.40;;;;;;5067535;28;20089;-88
2022/09/22 11:00:20;;;;;;;3.88;2.20;;;33.30;56.30;;;;;;5077105;28;20051;-85
2022/09/22 11:02:55;;;;;;;8.25;2.50;;;31.50;57.70;;;;;;5063262;28;20028;-86
2022/09/22 11:12:15;;;;;;;8.70;1.42;;;30.20;56.70;;;;;;5087137;28;20043;-88
2022/09/22 11:15:00;;;;;;;3.35;1.20;;;29.90;57.10;;;;;;5096740;28;20024;-87
2022/09/22 11:17:42;;;;;;;2.88;1.60;;;29.30;58.00;;;;;;5083300;28;20029;-87
2022/09/22 11:20:23;;;;;;;3.30;1.40;;;29.90;57.90;;;;;;5092810;28;20112;-90
2022/09/22 11:23:00;;;;;;;1.77;1.42;;;31.20;56.40;;;;;;5095735;28;20048;-89
2022/09/22 11:26:03;;;;;;;3.38;1.73;;;31.60;56.10;;;;;;5095913;28;20036;-85
2022/09/22 11:28:38;;;;;;;2.63;1.40;;;32.40;55.30;;;;;;5088465;28;20402;-87
2022/09/22 11:31:04;;;;;;;11.65;3.50;;;33.20;53.80;;;;;;5101262;28;20029;-85
2022/09/22 11:34:09;;;;;;;1.52;1.38;;;33.10;53.90;;;;;;5116068;28;20047;-90
2022/09/22 11:36:46;;;;;;;2.45;1.30;;;33.30;53.30;;;;;;5117061;28;20069;-91
2022/09/22 11:39:43;;;;;;;6.28;2.85;;;33.90;52.80;;;;;;5118570;28;20012;-89
2022/09/22 11:42:42;;;;;;;4.78;1.45;;;34.10;52.50;;;;;;5090772;28;20020;-88
2022/09/22 11:45:40;;;;;;;4.40;1.50;;;34.40;51.10;;;;;;5098130;28;20033;-88
2022/09/22 11:48:06;;;;;;;2.40;1.38;;;33.20;51.60;;;;;;5080346;28;20132;-86
2022/09/22 11:50:38;;;;;;;6.28;2.20;;;32.40;52.50;;;;;;5105412;28;20071;-85
2022/09/22 11:53:23;;;;;;;2.78;1.55;;;32.10;52.60;;;;;;5097053;28;20040;-88
2022/09/22 11:56:12;;;;;;;;;;;32.20;52.50;;;;;;5178174;22;20043;-89
2022/09/22 11:58:41;;;;;;;2.38;1.23;;;33.10;50.80;;;;;;5144864;27;19929;-88
2022/09/22 12:01:28;;;;;;;1.92;1.08;;;33.80;50.30;;;;;;5133325;27;20026;-87
2022/09/22 12:04:18;;;;;;;3.78;1.13;;;34.00;50.20;;;;;;5115327;27;20045;-88
2022/09/22 12:06:48;;;;;;;2.30;1.17;;;34.00;50.30;;;;;;5128087;28;20052;-88
2022/09/22 12:09:25;;;;;;;3.70;1.23;;;34.10;50.00;;;;;;5122626;27;20031;-87
2022/09/22 12:11:55;;;;;;;2.90;1.20;;;33.90;49.40;;;;;;5135604;28;20042;-88
2022/09/22 12:14:22;;;;;;;2.42;1.40;;;33.90;50.10;;;;;;5117148;28;20067;-88
2022/09/22 12:17:06;;;;;;;1.10;1.00;;;34.70;49.00;;;;;;5115546;28;20024;-88
2022/09/22 12:19:46;;;;;;;1.60;1.00;;;34.30;48.40;;;;;;5136961;28;20016;-88
2022/09/22 12:22:20;;;;;;;1.77;1.17;;;34.30;48.20;;;;;;5127913;27;20020;-87
2022/09/22 12:24:47;;;;;;;3.22;1.83;;;34.70;47.70;;;;;;5120618;28;20106;-89
2022/09/22 12:27:27;;;;;;;1.08;0.98;;;35.10;47.70;;;;;;5132159;28;20020;-89
2022/09/22 12:30:02;;;;;;;1.10;1.00;;;34.90;47.00;;;;;;5124680;28;20031;-84
2022/09/22 12:32:35;;;;;;;2.25;1.10;;;32.80;47.90;;;;;;5109188;28;20028;-86
2022/09/22 12:35:02;;;;;;;0.80;0.77;;;30.20;50.00;;;;;;5111234;28;20047;-86
2022/09/22 12:37:31;;;;;;;1.33;1.00;;;28.10;52.30;;;;;;5122295;28;20026;-88
2022/09/22 12:40:12;;;;;;;3.35;1.30;;;26.90;54.70;;;;;;5106918;28;20065;-89
2022/09/22 12:42:42;;;;;;;2.70;1.55;;;27.70;54.50;;;;;;5124881;28;20016;-89
2022/09/22 12:45:19;;;;;;;4.20;1.20;;;29.30;53.50;;;;;;5126644;28;20039;-88
2022/09/22 12:47:51;;;;;;;3.05;1.10;;;31.20;51.30;;;;;;5128104;28;20016;-88
2022/09/22 12:50:23;;;;;;;2.00;1.25;;;32.60;49.70;;;;;;5104178;28;20044;-88
2022/09/22 12:52:52;;;;;;;2.72;1.10;;;33.40;48.50;;;;;;5117330;28;20384;-87
2022/09/22 12:55:27;;;;;;;1.50;0.95;;;34.10;47.70;;;;;;5110480;28;20039;-87
2022/09/22 12:57:56;;;;;;;1.27;1.08;;;34.90;47.20;;;;;;5111132;28;20054;-87
2022/09/22 13:00:42;;;;;;;1.20;1.00;;;32.90;46.40;;;;;;5128181;28;20007;-87
2022/09/22 13:03:26;;;;;;;5.28;1.20;;;29.90;49.20;;;;;;5098646;28;20028;-88
2022/09/22 13:05:57;;;;;;;5.20;1.40;;;29.60;50.50;;;;;;5105412;28;20028;-88
2022/09/22 13:08:29;;;;;;;10.82;1.83;;;30.70;50.00;;;;;;5116531;28;20100;-85
2022/09/22 13:11:06;;;;;;;7.47;1.20;;;31.50;49.40;;;;;;5112719;28;20035;-89
2022/09/22 13:13:43;;;;;;;5.10;1.48;;;31.80;48.40;;;;;;5122143;27;20028;-90
2022/09/22 13:16:18;;;;;;;2.13;1.10;;;32.40;47.90;;;;;;5125442;27;20049;-89
2022/09/22 13:18:45;;;;;;;0.82;0.80;;;33.10;47.30;;;;;;5132682;28;20044;-87
2022/09/22 13:21:11;;;;;;;2.55;1.05;;;33.50;47.50;;;;;;5117674;28;20123;-87
2022/09/22 13:23:50;;;;;;;2.75;1.17;;;34.10;46.90;;;;;;5123504;27;20008;-88
2022/09/22 13:26:30;;;;;;;2.00;1.50;;;34.20;47.00;;;;;;5142570;27;20026;-88
2022/09/22 13:29:15;;;;;;;2.03;1.17;;;33.70;47.20;;;;;;5142801;27;20031;-89
2022/09/22 13:31:49;;;;;;;1.73;1.05;;;32.80;47.30;;;;;;5134774;27;20015;-88